createdAt,value
2019-03-18T00:00:04.459Z,36.89
2019-03-18T00:02:32.865Z,36.93
2019-03-18T00:05:01.355Z,36.85
2019-03-18T00:07:29.840Z,36.85
2019-03-18T00:09:58.223Z,36.82
2019-03-18T00:12:26.644Z,36.83
2019-03-18T00:15:01.298Z,36.68
2019-03-18T00:17:25.218Z,36.75
2019-03-18T00:19:53.674Z,36.79
2019-03-18T00:22:22.099Z,36.82
2019-03-18T00:24:50.492Z,36.77
2019-03-18T00:27:18.947Z,36.78
2019-03-18T00:29:47.353Z,36.76
2019-03-18T00:32:15.736Z,36.66
2019-03-18T00:34:44.191Z,36.68
2019-03-18T00:37:12.603Z,36.79
2019-03-18T00:39:40.994Z,36.69
2019-03-18T00:42:09.413Z,36.72
2019-03-18T00:44:37.807Z,36.77
2019-03-18T00:47:06.304Z,36.77
2019-03-18T00:49:34.767Z,36.54
2019-03-18T00:52:03.148Z,36.67
2019-03-18T00:56:59.070Z,36.63
2019-03-18T00:59:27.458Z,36.60
2019-03-18T01:01:55.855Z,36.36
2019-03-18T01:04:24.259Z,36.51
2019-03-18T01:06:52.660Z,36.48
2019-03-18T01:09:21.054Z,36.41
2019-03-18T01:11:49.457Z,36.54
2019-03-18T01:14:17.846Z,36.51
2019-03-18T01:16:46.258Z,36.49
2019-03-18T01:19:14.648Z,36.47
2019-03-18T01:21:43.046Z,36.50
2019-03-18T01:24:11.460Z,36.46
2019-03-18T01:26:39.898Z,36.49
2019-03-18T01:29:08.291Z,36.43
2019-03-18T01:31:36.724Z,36.48
2019-03-18T01:34:05.140Z,36.40
2019-03-18T01:36:33.564Z,36.44
2019-03-18T01:39:02.041Z,36.21
2019-03-18T01:41:30.478Z,36.35
2019-03-18T01:43:58.873Z,36.41
2019-03-18T01:46:27.365Z,36.19
2019-03-18T01:48:55.770Z,36.04
2019-03-18T01:51:24.215Z,36.34
2019-03-18T01:53:52.587Z,36.35
2019-03-18T01:56:21.015Z,36.29
2019-03-18T01:58:49.424Z,36.28
2019-03-18T02:01:17.825Z,35.91
2019-03-18T02:03:46.231Z,35.89
2019-03-18T02:06:14.625Z,35.97
2019-03-18T02:08:43.059Z,35.98
2019-03-18T02:11:11.445Z,35.71
2019-03-18T02:13:39.851Z,36.01
2019-03-18T02:16:08.258Z,36.01
2019-03-18T02:18:36.801Z,36.31
2019-03-18T02:21:05.249Z,36.12
2019-03-18T02:23:33.657Z,36.26
2019-03-18T02:26:02.046Z,36.10
2019-03-18T02:28:30.458Z,36.18
2019-03-18T02:30:58.870Z,36.24
2019-03-18T02:33:27.267Z,36.27
2019-03-18T02:35:55.669Z,36.29
2019-03-18T02:38:24.078Z,36.33
2019-03-18T02:40:52.515Z,36.28
2019-03-18T02:43:20.923Z,36.15
2019-03-18T02:45:49.332Z,36.13
2019-03-18T02:48:17.741Z,36.18
2019-03-18T02:50:46.138Z,35.70
2019-03-18T02:53:14.538Z,35.99
2019-03-18T02:55:43.015Z,36.32
2019-03-18T02:58:11.459Z,36.26
2019-03-18T03:00:39.923Z,36.28
2019-03-18T03:03:08.364Z,36.37
2019-03-18T03:05:36.766Z,36.39
2019-03-18T03:08:05.193Z,36.10
2019-03-18T03:10:33.588Z,36.36
2019-03-18T03:13:02.193Z,36.35
2019-03-18T03:15:30.593Z,36.38
2019-03-18T03:17:59.024Z,36.26
2019-03-18T03:20:27.456Z,36.36
2019-03-18T03:22:55.977Z,36.38
2019-03-18T03:25:25.042Z,36.34
2019-03-18T03:27:53.901Z,36.38
2019-03-18T03:30:22.304Z,36.00
2019-03-18T03:32:50.742Z,36.31
2019-03-18T03:35:19.124Z,36.15
2019-03-18T03:37:47.569Z,36.40
2019-03-18T03:40:15.963Z,36.40
2019-03-18T03:42:44.655Z,36.14
2019-03-18T03:45:14.159Z,36.32
2019-03-18T03:47:42.617Z,36.18
2019-03-18T03:50:12.746Z,36.27
2019-03-18T03:52:41.151Z,36.35
2019-03-18T03:55:13.502Z,36.45
2019-03-18T03:57:41.894Z,36.18
2019-03-18T04:00:14.895Z,36.45
2019-03-18T04:02:43.347Z,36.47
2019-03-18T04:05:11.739Z,36.32
2019-03-18T04:07:40.169Z,36.37
2019-03-18T04:10:10.400Z,36.40
2019-03-18T04:12:38.796Z,36.47
2019-03-18T04:15:09.814Z,36.45
2019-03-18T04:17:38.210Z,36.37
2019-03-18T04:20:14.537Z,36.52
2019-03-18T04:22:42.943Z,36.54
2019-03-18T04:25:11.338Z,36.54
2019-03-18T04:27:39.767Z,36.51
2019-03-18T04:30:10.946Z,36.54
2019-03-18T04:32:39.369Z,36.54
2019-03-18T04:35:07.749Z,36.40
2019-03-18T04:37:36.229Z,36.46
2019-03-18T04:40:05.367Z,36.61
2019-03-18T04:42:33.790Z,36.60
2019-03-18T04:45:02.190Z,36.63
2019-03-18T04:47:30.635Z,36.60
2019-03-18T04:49:59.091Z,36.46
2019-03-18T04:52:27.591Z,36.57
2019-03-18T04:54:55.969Z,36.50
2019-03-18T04:57:24.396Z,36.64
2019-03-18T04:59:52.797Z,36.63
2019-03-18T05:02:21.182Z,36.51
2019-03-18T05:04:49.573Z,36.61
2019-03-18T05:07:18.024Z,36.49
2019-03-18T05:09:46.455Z,36.66
2019-03-18T05:12:14.836Z,36.67
2019-03-18T05:14:43.229Z,36.75
2019-03-18T05:17:11.623Z,36.63
2019-03-18T05:19:40.019Z,36.76
2019-03-18T05:22:08.413Z,36.69
2019-03-18T05:24:36.801Z,36.78
2019-03-18T05:27:05.192Z,36.78
2019-03-18T05:29:33.585Z,36.68
2019-03-18T05:32:04.909Z,36.77
2019-03-18T05:34:32.104Z,36.65
2019-03-18T05:37:00.625Z,36.71
2019-03-18T05:39:29.146Z,36.68
2019-03-18T05:41:57.533Z,36.58
2019-03-18T05:44:25.970Z,36.63
2019-03-18T05:46:54.352Z,36.62
2019-03-18T05:49:22.810Z,36.67
2019-03-18T05:51:51.195Z,36.66
2019-03-18T05:54:19.609Z,36.69
2019-03-18T05:56:48.070Z,36.53
2019-03-18T05:59:16.495Z,36.66
2019-03-18T06:01:44.878Z,36.65
2019-03-18T06:04:13.303Z,36.55
2019-03-18T06:06:41.695Z,36.65
2019-03-18T06:09:10.120Z,36.51
2019-03-18T06:11:38.506Z,36.55
2019-03-18T06:14:07.014Z,36.63
2019-03-18T06:16:35.403Z,36.59
2019-03-18T06:19:03.841Z,36.60
2019-03-18T06:21:32.243Z,36.56
2019-03-18T06:24:00.653Z,36.65
2019-03-18T06:26:29.261Z,36.86
2019-03-18T06:28:57.747Z,36.83
2019-03-18T06:31:26.095Z,36.83
2019-03-18T06:33:54.532Z,36.88
2019-03-18T06:36:22.945Z,36.87
2019-03-18T06:38:51.357Z,36.80
2019-03-18T06:41:19.733Z,36.91
2019-03-18T06:43:48.121Z,36.89
2019-03-18T06:46:16.508Z,36.80
2019-03-18T06:48:44.905Z,36.85
2019-03-18T06:51:13.293Z,36.90
2019-03-18T06:53:41.731Z,36.63
2019-03-18T06:56:10.110Z,36.77
2019-03-18T06:58:38.494Z,36.79
2019-03-18T07:01:06.906Z,36.75
2019-03-18T07:03:35.344Z,36.72
2019-03-18T07:06:03.738Z,36.68
2019-03-18T07:08:32.149Z,36.71
2019-03-18T07:11:00.549Z,36.65
2019-03-18T07:13:28.978Z,36.59
2019-03-18T07:16:00.015Z,36.58
2019-03-18T07:18:27.664Z,36.58
2019-03-18T07:20:56.046Z,36.52
2019-03-18T07:23:24.439Z,36.49
2019-03-18T07:25:52.835Z,36.46
2019-03-18T07:28:21.226Z,36.46
2019-03-18T07:30:49.618Z,36.45
2019-03-18T07:33:18.021Z,36.43
2019-03-18T07:35:46.420Z,36.36
2019-03-18T07:38:14.803Z,36.37
2019-03-18T07:40:43.210Z,36.27
2019-03-18T07:43:11.601Z,36.26
2019-03-18T07:45:39.988Z,36.24
2019-03-18T07:48:08.379Z,36.26
2019-03-18T07:50:36.764Z,36.21
2019-03-18T07:53:05.159Z,36.19
2019-03-18T07:55:33.550Z,36.07
2019-03-18T07:58:01.989Z,36.09
2019-03-18T08:00:30.384Z,36.11
2019-03-18T08:02:58.930Z,36.03
2019-03-18T08:05:27.317Z,36.05
2019-03-18T08:07:55.705Z,35.95
2019-03-18T08:10:24.097Z,35.97
2019-03-18T08:12:52.490Z,35.82
2019-03-18T08:15:20.886Z,35.86
2019-03-18T08:17:49.272Z,35.77
2019-03-18T08:20:17.668Z,35.74
2019-03-18T08:22:46.058Z,35.64
2019-03-18T08:25:14.455Z,35.69
2019-03-18T08:27:42.843Z,35.60
2019-03-18T08:30:13.083Z,35.62
2019-03-18T08:32:41.474Z,35.55
2019-03-18T08:35:09.901Z,35.52
2019-03-18T08:37:38.290Z,35.55
2019-03-18T08:40:09.938Z,35.53
2019-03-18T08:42:38.351Z,35.50
2019-03-18T08:45:11.642Z,35.45
2019-03-18T08:47:40.031Z,35.45
2019-03-18T08:50:12.276Z,35.47
2019-03-18T08:52:40.089Z,35.43
2019-03-18T08:55:09.942Z,35.44
2019-03-18T08:57:38.327Z,35.42
2019-03-18T09:00:12.132Z,35.47
2019-03-18T09:02:41.031Z,35.31
2019-03-18T09:05:10.269Z,35.40
2019-03-18T09:07:38.652Z,35.41
2019-03-18T09:10:14.260Z,35.40
2019-03-18T09:12:42.649Z,35.38
2019-03-18T09:15:11.709Z,35.35
2019-03-18T09:17:40.098Z,35.24
2019-03-18T09:20:16.124Z,35.29
2019-03-18T09:22:44.509Z,35.23
2019-03-18T09:25:13.066Z,35.13
2019-03-18T09:27:41.510Z,35.17
2019-03-18T09:30:15.543Z,35.09
2019-03-18T09:32:43.931Z,35.10
2019-03-18T09:35:12.317Z,35.03
2019-03-18T09:37:40.720Z,35.03
2019-03-18T09:40:11.911Z,35.01
2019-03-18T09:42:40.321Z,34.98
2019-03-18T09:45:11.701Z,34.98
2019-03-18T09:47:40.094Z,35.00
2019-03-18T09:50:09.839Z,34.98
2019-03-18T09:52:38.230Z,35.00
2019-03-18T09:55:07.419Z,34.96
2019-03-18T09:57:35.819Z,34.96
2019-03-18T10:00:06.750Z,34.91
2019-03-18T10:02:35.142Z,34.89
2019-03-18T10:05:04.478Z,34.89
2019-03-18T10:07:32.875Z,34.85
2019-03-18T10:10:01.291Z,34.91
2019-03-18T10:12:29.672Z,34.87
2019-03-18T10:14:58.096Z,34.83
2019-03-18T10:17:26.482Z,34.84
2019-03-18T10:19:54.892Z,34.88
2019-03-18T10:22:23.274Z,34.87
2019-03-18T10:24:53.325Z,34.80
2019-03-18T10:27:21.713Z,34.81
2019-03-18T10:29:50.139Z,34.93
2019-03-18T10:32:18.535Z,34.92
2019-03-18T10:34:46.947Z,34.91
2019-03-18T10:37:15.331Z,34.93
2019-03-18T10:39:43.799Z,34.94
2019-03-18T10:42:12.187Z,34.91
2019-03-18T10:44:40.577Z,34.97
2019-03-18T10:47:08.966Z,34.96
2019-03-18T10:49:45.940Z,34.99
2019-03-18T10:52:07.511Z,35.05
2019-03-18T10:54:35.958Z,35.05
2019-03-18T10:57:04.344Z,35.04
2019-03-18T10:59:32.853Z,34.93
2019-03-18T11:02:01.429Z,34.84
2019-03-18T11:04:29.825Z,34.75
2019-03-18T11:06:58.217Z,34.59
2019-03-18T11:09:26.604Z,34.31
2019-03-18T11:11:55.012Z,34.07
2019-03-18T11:14:23.483Z,33.66
2019-03-18T11:16:52.589Z,33.49
2019-03-18T11:19:21.083Z,33.50
2019-03-18T11:21:49.576Z,33.59
2019-03-18T11:24:17.964Z,33.59
2019-03-18T11:26:46.380Z,33.71
2019-03-18T11:29:14.766Z,33.79
2019-03-18T11:31:43.202Z,33.86
2019-03-18T11:34:11.589Z,33.95
2019-03-18T11:36:40.013Z,34.04
2019-03-18T11:39:08.505Z,34.12
2019-03-18T11:41:38.371Z,34.21
2019-03-18T11:44:06.996Z,34.30
2019-03-18T11:46:35.429Z,34.34
2019-03-18T11:49:03.898Z,34.43
2019-03-18T11:51:32.381Z,34.54
2019-03-18T11:54:00.775Z,34.50
2019-03-18T11:56:29.182Z,34.55
2019-03-18T11:58:57.685Z,34.52
2019-03-18T12:01:26.079Z,34.59
2019-03-18T12:03:54.467Z,34.56
2019-03-18T12:06:22.854Z,34.59
2019-03-18T12:08:51.241Z,34.61
2019-03-18T12:11:19.631Z,34.60
2019-03-18T12:13:48.058Z,34.64
2019-03-18T12:16:16.455Z,34.62
2019-03-18T12:18:44.844Z,34.68
2019-03-18T12:21:15.912Z,34.71
2019-03-18T12:23:43.349Z,34.70
2019-03-18T12:26:11.738Z,34.73
2019-03-18T12:28:40.135Z,34.76
2019-03-18T12:31:08.526Z,34.79
2019-03-18T12:33:36.932Z,34.79
2019-03-18T12:36:05.321Z,34.80
2019-03-18T12:38:33.711Z,34.81
2019-03-18T12:41:02.193Z,34.89
2019-03-18T12:43:30.582Z,34.95
2019-03-18T12:45:58.999Z,34.90
2019-03-18T12:48:27.390Z,34.96
2019-03-18T12:50:56.806Z,34.87
2019-03-18T12:53:25.295Z,34.96
2019-03-18T12:55:53.718Z,34.94
2019-03-18T12:58:22.125Z,34.84
2019-03-18T13:00:50.566Z,34.91
2019-03-18T13:03:18.955Z,34.89
2019-03-18T13:05:47.344Z,34.95
2019-03-18T13:08:15.749Z,34.95
2019-03-18T13:10:44.143Z,35.01
2019-03-18T13:13:12.606Z,34.99
2019-03-18T13:15:40.995Z,34.98
2019-03-18T13:18:09.383Z,35.00
2019-03-18T13:20:37.827Z,35.01
2019-03-18T13:23:06.252Z,35.01
2019-03-18T13:25:34.663Z,35.08
2019-03-18T13:28:03.059Z,35.12
2019-03-18T13:30:31.574Z,35.13
2019-03-18T13:33:00.035Z,35.11
2019-03-18T13:35:28.426Z,35.19
2019-03-18T13:37:56.829Z,35.16
2019-03-18T13:40:25.979Z,35.22
2019-03-18T13:42:54.372Z,35.22
2019-03-18T13:45:25.989Z,35.18
2019-03-18T13:47:54.400Z,35.22
2019-03-18T13:50:23.057Z,35.23
2019-03-18T13:52:51.531Z,35.26
2019-03-18T13:55:19.925Z,35.31
2019-03-18T13:57:48.307Z,35.33
2019-03-18T14:00:18.704Z,35.29
2019-03-18T14:02:47.086Z,35.06
2019-03-18T14:05:15.560Z,35.06
2019-03-18T14:07:44.078Z,35.05
2019-03-18T14:10:16.501Z,35.10
2019-03-18T14:12:45.016Z,35.09
2019-03-18T14:15:15.246Z,35.05
2019-03-18T14:17:43.812Z,34.99
2019-03-18T14:20:17.172Z,34.96
2019-03-18T14:22:45.578Z,34.92
2019-03-18T14:25:13.980Z,34.91
2019-03-18T14:27:42.389Z,34.88
2019-03-18T14:30:13.693Z,34.90
2019-03-18T14:32:42.200Z,34.87
2019-03-18T14:35:10.652Z,34.85
2019-03-18T14:37:39.140Z,34.85
2019-03-18T14:40:10.528Z,34.89
2019-03-18T14:42:38.936Z,35.01
2019-03-18T14:45:10.629Z,35.06
2019-03-18T14:47:39.085Z,35.09
2019-03-18T14:50:09.910Z,35.18
2019-03-18T14:52:38.360Z,35.21
2019-03-18T14:55:10.284Z,35.12
2019-03-18T14:57:38.865Z,35.23
2019-03-18T15:00:24.529Z,35.23
2019-03-18T15:02:52.984Z,35.24
2019-03-18T15:05:21.397Z,35.22
2019-03-18T15:07:49.785Z,35.27
2019-03-18T15:10:31.984Z,35.23
2019-03-18T15:13:00.393Z,35.22
2019-03-18T15:15:28.766Z,35.22
2019-03-18T15:17:57.165Z,35.24
2019-03-18T15:20:27.400Z,35.18
2019-03-18T15:22:55.791Z,35.24
2019-03-18T15:25:26.586Z,35.16
2019-03-18T15:27:54.979Z,35.18
2019-03-18T15:30:23.370Z,35.18
2019-03-18T15:32:51.759Z,35.16
2019-03-18T15:35:20.149Z,35.17
2019-03-18T15:37:48.559Z,35.21
2019-03-18T15:40:24.542Z,35.21
2019-03-18T15:42:52.977Z,35.18
2019-03-18T15:45:24.440Z,35.18
2019-03-18T15:47:52.877Z,35.17
2019-03-18T15:50:26.241Z,35.23
2019-03-18T15:52:55.781Z,35.21
2019-03-18T15:55:24.697Z,35.25
2019-03-18T15:57:53.210Z,35.25
2019-03-18T16:00:28.817Z,35.20
2019-03-18T16:02:57.259Z,35.27
2019-03-18T16:05:25.661Z,35.24
2019-03-18T16:07:54.163Z,35.29
2019-03-18T16:10:22.549Z,35.27
2019-03-18T16:12:50.968Z,35.29
2019-03-18T16:15:19.371Z,35.29
2019-03-18T16:17:47.788Z,35.33
2019-03-18T16:20:18.379Z,35.30
2019-03-18T16:22:46.827Z,35.35
2019-03-18T16:25:15.189Z,35.34
2019-03-18T16:27:43.680Z,35.34
2019-03-18T16:30:16.197Z,35.34
2019-03-18T16:32:44.569Z,35.35
2019-03-18T16:35:15.824Z,35.36
2019-03-18T16:37:44.330Z,35.39
2019-03-18T16:40:23.252Z,35.42
2019-03-18T16:42:51.859Z,35.37
2019-03-18T16:45:20.589Z,35.40
2019-03-18T16:47:48.993Z,35.44
2019-03-18T16:50:19.969Z,35.42
2019-03-18T16:52:48.357Z,35.41
2019-03-18T16:55:17.851Z,35.47
2019-03-18T16:57:46.305Z,35.45
2019-03-18T17:00:19.558Z,35.47
2019-03-18T17:02:47.998Z,35.47
2019-03-18T17:05:16.470Z,35.49
2019-03-18T17:07:44.909Z,35.53
2019-03-18T17:10:14.499Z,35.55
2019-03-18T17:12:42.986Z,35.55
2019-03-18T17:15:12.915Z,35.52
2019-03-18T17:17:41.341Z,35.54
2019-03-18T17:20:14.604Z,35.57
2019-03-18T17:22:49.516Z,35.54
2019-03-18T17:25:30.443Z,35.53
2019-03-18T17:27:58.861Z,35.54
2019-03-18T17:30:27.263Z,35.57
2019-03-18T17:32:55.783Z,35.57
2019-03-18T17:35:24.178Z,35.54
2019-03-18T17:37:52.633Z,35.49
2019-03-18T17:40:21.498Z,35.52
2019-03-18T17:42:49.927Z,35.58
2019-03-18T17:45:18.966Z,35.70
2019-03-18T17:47:47.394Z,35.69
2019-03-18T17:50:21.645Z,35.78
2019-03-18T17:53:01.604Z,35.78
2019-03-18T17:55:20.189Z,35.92
2019-03-18T17:57:48.782Z,35.92
2019-03-18T18:00:25.228Z,35.93
2019-03-18T18:02:53.661Z,36.00
2019-03-18T18:05:22.068Z,36.02
2019-03-18T18:07:50.506Z,35.97
2019-03-18T18:10:18.903Z,36.03
2019-03-18T18:12:47.307Z,36.04
2019-03-18T18:15:15.708Z,36.04
2019-03-18T18:17:44.175Z,36.01
2019-03-18T18:20:14.974Z,36.08
2019-03-18T18:22:43.444Z,36.10
2019-03-18T18:25:15.695Z,36.11
2019-03-18T18:27:44.112Z,36.06
2019-03-18T18:30:18.607Z,36.10
2019-03-18T18:32:47.161Z,36.12
2019-03-18T18:35:15.937Z,36.20
2019-03-18T18:37:44.330Z,36.22
2019-03-18T18:40:26.376Z,36.19
2019-03-18T18:42:54.786Z,36.21
2019-03-18T18:45:23.189Z,36.22
2019-03-18T18:47:51.580Z,36.17
2019-03-18T18:50:19.990Z,36.16
2019-03-18T18:52:48.378Z,36.15
2019-03-18T18:55:18.351Z,36.16
2019-03-18T18:57:46.810Z,36.17
2019-03-18T19:00:19.941Z,36.24
2019-03-18T19:02:48.385Z,36.18
2019-03-18T19:05:17.431Z,36.19
2019-03-18T19:07:45.906Z,36.22
2019-03-18T19:10:16.428Z,36.21
2019-03-18T19:12:44.845Z,36.20
2019-03-18T19:15:19.091Z,36.20
2019-03-18T19:17:47.497Z,36.18
2019-03-18T19:20:15.897Z,36.21
2019-03-18T19:22:44.305Z,36.18
2019-03-18T19:25:16.812Z,36.17
2019-03-18T19:27:45.214Z,36.14
2019-03-18T19:30:18.238Z,36.22
2019-03-18T19:32:48.265Z,36.14
2019-03-18T19:35:18.306Z,36.23
2019-03-18T19:37:46.758Z,36.12
2019-03-18T19:40:16.597Z,36.14
2019-03-18T19:42:45.099Z,36.13
2019-03-18T19:45:14.371Z,36.17
2019-03-18T19:47:42.827Z,36.08
2019-03-18T19:50:22.898Z,36.17
2019-03-18T19:52:51.386Z,36.21
2019-03-18T19:55:19.876Z,36.24
2019-03-18T19:57:48.270Z,36.24
2019-03-18T20:00:27.642Z,36.25
2019-03-18T20:02:56.044Z,36.20
2019-03-18T20:05:24.443Z,36.39
2019-03-18T20:07:52.837Z,36.36
2019-03-18T20:10:22.009Z,36.49
2019-03-18T20:12:50.418Z,36.39
2019-03-18T20:15:19.733Z,36.61
2019-03-18T20:17:48.122Z,36.74
2019-03-18T20:20:21.182Z,36.83
2019-03-18T20:22:49.642Z,36.97
2019-03-18T20:25:18.040Z,37.35
2019-03-18T20:27:46.434Z,37.44
2019-03-18T20:30:18.706Z,37.49
2019-03-18T20:32:47.155Z,37.50
2019-03-18T20:35:26.300Z,37.88
2019-03-18T20:37:54.743Z,37.70
2019-03-18T20:40:24.863Z,37.58
2019-03-18T20:42:53.251Z,37.64
2019-03-18T20:45:26.169Z,37.74
2019-03-18T20:47:54.565Z,37.98
2019-03-18T20:50:23.904Z,38.20
2019-03-18T20:52:52.440Z,38.13
2019-03-18T20:55:20.883Z,37.95
2019-03-18T20:57:49.284Z,37.82
2019-03-18T21:00:19.631Z,38.16
2019-03-18T21:02:48.032Z,38.05
2019-03-18T21:05:16.487Z,37.98
2019-03-18T21:07:44.938Z,37.94
2019-03-18T21:10:17.778Z,37.92
2019-03-18T21:12:47.297Z,37.93
2019-03-18T21:15:16.742Z,38.29
2019-03-18T21:17:45.130Z,38.25
2019-03-18T21:20:21.680Z,38.17
2019-03-18T21:22:50.098Z,38.33
2019-03-18T21:25:18.498Z,38.29
2019-03-18T21:27:46.904Z,38.45
2019-03-18T21:30:17.707Z,38.39
2019-03-18T21:32:46.105Z,38.61
2019-03-18T21:35:14.542Z,38.47
2019-03-18T21:37:42.943Z,38.57
2019-03-18T21:40:21.728Z,38.59
2019-03-18T21:42:50.120Z,38.52
2019-03-18T21:45:19.696Z,38.58
2019-03-18T21:47:48.086Z,38.61
2019-03-18T21:50:16.875Z,38.54
2019-03-18T21:52:45.339Z,38.71
2019-03-18T21:55:14.293Z,38.61
2019-03-18T21:57:42.786Z,38.72
2019-03-18T22:00:16.577Z,38.63
2019-03-18T22:02:44.972Z,38.81
2019-03-18T22:05:13.369Z,38.77
2019-03-18T22:07:41.764Z,38.74
2019-03-18T22:10:12.544Z,38.75
2019-03-18T22:12:40.945Z,38.90
2019-03-18T22:15:11.474Z,38.72
2019-03-18T22:17:40.061Z,38.70
2019-03-18T22:20:11.859Z,38.71
2019-03-18T22:22:40.256Z,38.63
2019-03-18T22:25:10.312Z,38.74
2019-03-18T22:27:38.790Z,38.79
2019-03-18T22:30:16.276Z,38.79
2019-03-18T22:32:44.668Z,38.68
2019-03-18T22:35:13.306Z,38.56
2019-03-18T22:37:41.682Z,38.82
2019-03-18T22:40:11.886Z,38.70
2019-03-18T22:42:40.283Z,38.68
2019-03-18T22:45:10.898Z,38.77
2019-03-18T22:47:39.358Z,38.73
2019-03-18T22:50:09.336Z,38.85
2019-03-18T22:52:37.834Z,38.61
2019-03-18T22:55:09.034Z,38.67
2019-03-18T22:57:37.431Z,38.59
2019-03-18T23:00:10.752Z,38.43
2019-03-18T23:02:39.275Z,38.76
2019-03-18T23:05:08.111Z,38.70
2019-03-18T23:07:36.573Z,38.43
2019-03-18T23:10:06.828Z,38.60
2019-03-18T23:12:35.246Z,38.63
2019-03-18T23:15:05.483Z,38.67
2019-03-18T23:17:33.898Z,38.45
2019-03-18T23:20:02.282Z,38.81
2019-03-18T23:22:30.677Z,38.77
2019-03-18T23:25:07.087Z,38.63
2019-03-18T23:27:29.199Z,38.53
2019-03-18T23:29:57.661Z,38.53
2019-03-18T23:32:26.066Z,38.45
2019-03-18T23:34:54.467Z,38.49
2019-03-18T23:37:22.914Z,38.57
2019-03-18T23:39:51.319Z,38.66
2019-03-18T23:42:19.717Z,38.51
2019-03-18T23:44:48.113Z,38.61
2019-03-18T23:47:16.519Z,38.69
2019-03-18T23:49:47.419Z,38.38
2019-03-18T23:52:15.186Z,38.46
2019-03-18T23:54:43.580Z,38.60
2019-03-18T23:57:12.034Z,38.51
2019-03-18T23:59:40.441Z,38.54
